sensor_id;sensor_type;location;lat;lon;timestamp;temperature;humidity
12872;DHT22;6504;53.766;9.626;2023-08-06T00:00:43;18.00;99.90
12872;DHT22;6504;53.766;9.626;2023-08-06T00:03:11;17.90;99.90
12872;DHT22;6504;53.766;9.626;2023-08-06T00:05:41;17.90;99.90
12872;DHT22;6504;53.766;9.626;2023-08-06T00:08:11;17.90;99.90
12872;DHT22;6504;53.766;9.626;2023-08-06T00:10:40;17.90;99.90
12872;DHT22;6504;53.766;9.626;2023-08-06T00:13:08;17.90;99.90
12872;DHT22;6504;53.766;9.626;2023-08-06T00:15:36;17.80;99.90
12872;DHT22;6504;53.766;9.626;2023-08-06T00:18:04;17.80;99.90
12872;DHT22;6504;53.766;9.626;2023-08-06T00:20:32;17.80;99.90
12872;DHT22;6504;53.766;9.626;2023-08-06T00:23:00;17.70;99.90
12872;DHT22;6504;53.766;9.626;2023-08-06T00:25:30;17.70;99.90
12872;DHT22;6504;53.766;9.626;2023-08-06T00:27:58;17.70;99.90
12872;DHT22;6504;53.766;9.626;2023-08-06T00:30:26;17.60;99.90
12872;DHT22;6504;53.766;9.626;2023-08-06T00:32:54;17.60;99.90
12872;DHT22;6504;53.766;9.626;2023-08-06T00:35:22;17.50;99.90
12872;DHT22;6504;53.766;9.626;2023-08-06T00:37:50;17.50;99.90
12872;DHT22;6504;53.766;9.626;2023-08-06T00:40:20;17.50;99.90
12872;DHT22;6504;53.766;9.626;2023-08-06T00:42:50;17.50;99.90
12872;DHT22;6504;53.766;9.626;2023-08-06T00:45:18;17.50;99.90
12872;DHT22;6504;53.766;9.626;2023-08-06T00:47:47;17.50;99.90
12872;DHT22;6504;53.766;9.626;2023-08-06T00:50:15;17.50;99.90
12872;DHT22;6504;53.766;9.626;2023-08-06T00:52:44;17.50;99.90
12872;DHT22;6504;53.766;9.626;2023-08-06T00:55:12;17.50;99.90
12872;DHT22;6504;53.766;9.626;2023-08-06T00:57:40;17.50;99.90
12872;DHT22;6504;53.766;9.626;2023-08-06T01:00:11;17.40;99.90
12872;DHT22;6504;53.766;9.626;2023-08-06T01:02:39;17.40;99.90
12872;DHT22;6504;53.766;9.626;2023-08-06T01:05:08;17.40;99.90
12872;DHT22;6504;53.766;9.626;2023-08-06T01:07:44;17.40;99.90
12872;DHT22;6504;53.766;9.626;2023-08-06T01:10:31;17.40;99.90
12872;DHT22;6504;53.766;9.626;2023-08-06T01:13:08;17.40;99.90
12872;DHT22;6504;53.766;9.626;2023-08-06T01:15:43;17.40;99.90
12872;DHT22;6504;53.766;9.626;2023-08-06T01:18:12;17.40;99.90
12872;DHT22;6504;53.766;9.626;2023-08-06T01:20:41;17.40;99.90
12872;DHT22;6504;53.766;9.626;2023-08-06T01:23:10;17.40;99.90
12872;DHT22;6504;53.766;9.626;2023-08-06T01:25:45;17.40;99.90
12872;DHT22;6504;53.766;9.626;2023-08-06T01:28:22;17.40;99.90
12872;DHT22;6504;53.766;9.626;2023-08-06T01:30:51;17.30;99.90
12872;DHT22;6504;53.766;9.626;2023-08-06T01:33:21;17.30;99.90
12872;DHT22;6504;53.766;9.626;2023-08-06T01:35:52;17.30;99.90
12872;DHT22;6504;53.766;9.626;2023-08-06T01:38:22;17.30;99.90
12872;DHT22;6504;53.766;9.626;2023-08-06T01:40:50;17.30;99.90
12872;DHT22;6504;53.766;9.626;2023-08-06T01:43:18;17.30;99.90
12872;DHT22;6504;53.766;9.626;2023-08-06T01:45:46;17.30;99.90
12872;DHT22;6504;53.766;9.626;2023-08-06T01:48:14;17.30;99.90
12872;DHT22;6504;53.766;9.626;2023-08-06T01:50:42;17.30;99.90
12872;DHT22;6504;53.766;9.626;2023-08-06T01:53:11;17.30;99.90
12872;DHT22;6504;53.766;9.626;2023-08-06T01:55:39;17.30;99.90
12872;DHT22;6504;53.766;9.626;2023-08-06T01:58:07;17.30;99.90
12872;DHT22;6504;53.766;9.626;2023-08-06T02:00:35;17.30;99.90
12872;DHT22;6504;53.766;9.626;2023-08-06T02:03:03;17.20;99.90
12872;DHT22;6504;53.766;9.626;2023-08-06T02:05:31;17.20;99.90
12872;DHT22;6504;53.766;9.626;2023-08-06T02:07:59;17.20;99.90
12872;DHT22;6504;53.766;9.626;2023-08-06T02:10:29;17.20;99.90
12872;DHT22;6504;53.766;9.626;2023-08-06T02:12:57;17.20;99.90
12872;DHT22;6504;53.766;9.626;2023-08-06T02:15:25;17.10;99.90
12872;DHT22;6504;53.766;9.626;2023-08-06T02:17:53;17.10;99.90
12872;DHT22;6504;53.766;9.626;2023-08-06T02:20:21;17.10;99.90
12872;DHT22;6504;53.766;9.626;2023-08-06T02:22:49;17.10;99.90
12872;DHT22;6504;53.766;9.626;2023-08-06T02:25:17;17.10;99.90
12872;DHT22;6504;53.766;9.626;2023-08-06T02:27:46;17.10;99.90
12872;DHT22;6504;53.766;9.626;2023-08-06T02:30:15;17.10;99.90
12872;DHT22;6504;53.766;9.626;2023-08-06T02:32:43;17.10;99.90
12872;DHT22;6504;53.766;9.626;2023-08-06T02:35:11;17.10;99.90
12872;DHT22;6504;53.766;9.626;2023-08-06T02:37:39;17.00;99.90
12872;DHT22;6504;53.766;9.626;2023-08-06T02:40:08;17.00;99.90
12872;DHT22;6504;53.766;9.626;2023-08-06T02:42:36;17.00;99.90
12872;DHT22;6504;53.766;9.626;2023-08-06T02:45:06;17.00;99.90
12872;DHT22;6504;53.766;9.626;2023-08-06T02:47:35;17.00;99.90
12872;DHT22;6504;53.766;9.626;2023-08-06T02:50:03;17.00;99.90
12872;DHT22;6504;53.766;9.626;2023-08-06T02:52:31;17.00;99.90
12872;DHT22;6504;53.766;9.626;2023-08-06T02:54:59;16.90;99.90
12872;DHT22;6504;53.766;9.626;2023-08-06T02:57:27;16.90;99.90
12872;DHT22;6504;53.766;9.626;2023-08-06T02:59:55;16.90;99.90
12872;DHT22;6504;53.766;9.626;2023-08-06T03:02:25;16.90;99.90
12872;DHT22;6504;53.766;9.626;2023-08-06T03:04:53;16.90;99.90
12872;DHT22;6504;53.766;9.626;2023-08-06T03:07:21;16.90;99.90
12872;DHT22;6504;53.766;9.626;2023-08-06T03:09:49;16.90;99.90
12872;DHT22;6504;53.766;9.626;2023-08-06T03:12:17;16.80;99.90
12872;DHT22;6504;53.766;9.626;2023-08-06T03:14:45;16.80;99.90
12872;DHT22;6504;53.766;9.626;2023-08-06T03:17:13;16.80;99.90
12872;DHT22;6504;53.766;9.626;2023-08-06T03:19:43;16.80;99.90
12872;DHT22;6504;53.766;9.626;2023-08-06T03:22:11;16.80;99.90
12872;DHT22;6504;53.766;9.626;2023-08-06T03:24:39;16.90;99.90
12872;DHT22;6504;53.766;9.626;2023-08-06T03:27:07;16.90;99.90
12872;DHT22;6504;53.766;9.626;2023-08-06T03:29:35;16.90;99.90
12872;DHT22;6504;53.766;9.626;2023-08-06T03:32:03;16.90;99.90
12872;DHT22;6504;53.766;9.626;2023-08-06T03:34:31;16.90;99.90
12872;DHT22;6504;53.766;9.626;2023-08-06T03:37:01;16.90;99.90
12872;DHT22;6504;53.766;9.626;2023-08-06T03:39:29;16.90;99.90
12872;DHT22;6504;53.766;9.626;2023-08-06T03:41:57;16.90;99.90
12872;DHT22;6504;53.766;9.626;2023-08-06T03:44:25;16.90;99.90
12872;DHT22;6504;53.766;9.626;2023-08-06T03:46:55;16.90;99.90
12872;DHT22;6504;53.766;9.626;2023-08-06T03:49:23;16.90;99.90
12872;DHT22;6504;53.766;9.626;2023-08-06T03:51:51;16.90;99.90
12872;DHT22;6504;53.766;9.626;2023-08-06T03:54:20;16.90;99.90
12872;DHT22;6504;53.766;9.626;2023-08-06T03:56:48;16.90;99.90
12872;DHT22;6504;53.766;9.626;2023-08-06T03:59:16;16.90;99.90
12872;DHT22;6504;53.766;9.626;2023-08-06T04:01:44;16.90;99.90
12872;DHT22;6504;53.766;9.626;2023-08-06T04:04:13;16.80;99.90
12872;DHT22;6504;53.766;9.626;2023-08-06T04:06:41;16.80;99.90
12872;DHT22;6504;53.766;9.626;2023-08-06T04:09:09;16.80;99.90
12872;DHT22;6504;53.766;9.626;2023-08-06T04:11:38;16.80;99.90
12872;DHT22;6504;53.766;9.626;2023-08-06T04:14:06;16.80;99.90
12872;DHT22;6504;53.766;9.626;2023-08-06T04:16:34;16.80;99.90
12872;DHT22;6504;53.766;9.626;2023-08-06T04:19:02;16.80;99.90
12872;DHT22;6504;53.766;9.626;2023-08-06T04:21:30;16.70;99.90
12872;DHT22;6504;53.766;9.626;2023-08-06T04:24:00;16.70;99.90
12872;DHT22;6504;53.766;9.626;2023-08-06T04:26:28;16.70;99.90
12872;DHT22;6504;53.766;9.626;2023-08-06T04:28:58;16.70;99.90
12872;DHT22;6504;53.766;9.626;2023-08-06T04:31:26;16.70;99.90
12872;DHT22;6504;53.766;9.626;2023-08-06T04:33:54;16.70;99.90
12872;DHT22;6504;53.766;9.626;2023-08-06T04:36:22;16.70;99.90
12872;DHT22;6504;53.766;9.626;2023-08-06T04:38:50;16.70;99.90
12872;DHT22;6504;53.766;9.626;2023-08-06T04:41:18;16.70;99.90
12872;DHT22;6504;53.766;9.626;2023-08-06T04:43:46;16.60;99.90
12872;DHT22;6504;53.766;9.626;2023-08-06T04:46:15;16.60;99.90
12872;DHT22;6504;53.766;9.626;2023-08-06T04:48:43;16.60;99.90
12872;DHT22;6504;53.766;9.626;2023-08-06T04:51:11;16.60;99.90
12872;DHT22;6504;53.766;9.626;2023-08-06T04:53:40;16.60;99.90
12872;DHT22;6504;53.766;9.626;2023-08-06T04:56:08;16.60;99.90
12872;DHT22;6504;53.766;9.626;2023-08-06T04:58:36;16.60;99.90
12872;DHT22;6504;53.766;9.626;2023-08-06T05:01:06;16.60;99.90
12872;DHT22;6504;53.766;9.626;2023-08-06T05:03:35;16.60;99.90
12872;DHT22;6504;53.766;9.626;2023-08-06T05:06:03;16.60;99.90
12872;DHT22;6504;53.766;9.626;2023-08-06T05:08:31;16.60;99.90
12872;DHT22;6504;53.766;9.626;2023-08-06T05:10:59;16.50;99.90
12872;DHT22;6504;53.766;9.626;2023-08-06T05:13:27;16.50;99.90
12872;DHT22;6504;53.766;9.626;2023-08-06T05:15:55;16.50;99.90
12872;DHT22;6504;53.766;9.626;2023-08-06T05:18:24;16.50;99.90
12872;DHT22;6504;53.766;9.626;2023-08-06T05:20:53;16.50;99.90
12872;DHT22;6504;53.766;9.626;2023-08-06T05:23:21;16.50;99.90
12872;DHT22;6504;53.766;9.626;2023-08-06T05:25:49;16.50;99.90
12872;DHT22;6504;53.766;9.626;2023-08-06T05:28:17;16.50;99.90
12872;DHT22;6504;53.766;9.626;2023-08-06T05:30:45;16.50;99.90
12872;DHT22;6504;53.766;9.626;2023-08-06T05:33:13;16.50;99.90
12872;DHT22;6504;53.766;9.626;2023-08-06T05:35:41;16.50;99.90
12872;DHT22;6504;53.766;9.626;2023-08-06T05:38:11;16.50;99.90
12872;DHT22;6504;53.766;9.626;2023-08-06T05:40:39;16.60;99.90
12872;DHT22;6504;53.766;9.626;2023-08-06T05:43:07;16.60;99.90
12872;DHT22;6504;53.766;9.626;2023-08-06T05:45:35;16.60;99.90
12872;DHT22;6504;53.766;9.626;2023-08-06T05:48:03;16.60;99.90
12872;DHT22;6504;53.766;9.626;2023-08-06T05:50:31;16.60;99.90
12872;DHT22;6504;53.766;9.626;2023-08-06T05:52:59;16.60;99.90
12872;DHT22;6504;53.766;9.626;2023-08-06T05:55:29;16.60;99.90
12872;DHT22;6504;53.766;9.626;2023-08-06T05:57:58;16.60;99.90
12872;DHT22;6504;53.766;9.626;2023-08-06T06:00:26;16.60;99.90
12872;DHT22;6504;53.766;9.626;2023-08-06T06:02:54;16.60;99.90
12872;DHT22;6504;53.766;9.626;2023-08-06T06:05:22;16.60;99.90
12872;DHT22;6504;53.766;9.626;2023-08-06T06:07:50;16.60;99.90
12872;DHT22;6504;53.766;9.626;2023-08-06T06:10:18;16.60;99.90
12872;DHT22;6504;53.766;9.626;2023-08-06T06:12:48;16.60;99.90
12872;DHT22;6504;53.766;9.626;2023-08-06T06:15:16;16.70;99.90
12872;DHT22;6504;53.766;9.626;2023-08-06T06:17:44;16.70;99.90
12872;DHT22;6504;53.766;9.626;2023-08-06T06:20:12;16.70;99.90
12872;DHT22;6504;53.766;9.626;2023-08-06T06:22:40;16.70;99.90
12872;DHT22;6504;53.766;9.626;2023-08-06T06:25:08;16.70;99.90
12872;DHT22;6504;53.766;9.626;2023-08-06T06:27:37;16.80;99.90
12872;DHT22;6504;53.766;9.626;2023-08-06T06:30:08;16.80;99.90
12872;DHT22;6504;53.766;9.626;2023-08-06T06:32:38;16.80;99.90
12872;DHT22;6504;53.766;9.626;2023-08-06T06:35:08;16.80;99.90
12872;DHT22;6504;53.766;9.626;2023-08-06T06:37:36;16.90;99.90
12872;DHT22;6504;53.766;9.626;2023-08-06T06:40:05;16.90;99.90
12872;DHT22;6504;53.766;9.626;2023-08-06T06:42:33;17.00;99.90
12872;DHT22;6504;53.766;9.626;2023-08-06T06:45:02;17.00;99.90
12872;DHT22;6504;53.766;9.626;2023-08-06T06:47:31;17.00;99.90
12872;DHT22;6504;53.766;9.626;2023-08-06T06:49:59;17.00;99.90
12872;DHT22;6504;53.766;9.626;2023-08-06T06:52:27;17.00;99.90
12872;DHT22;6504;53.766;9.626;2023-08-06T06:54:55;17.00;99.90
12872;DHT22;6504;53.766;9.626;2023-08-06T06:57:23;17.10;99.90
12872;DHT22;6504;53.766;9.626;2023-08-06T06:59:51;17.10;99.90
12872;DHT22;6504;53.766;9.626;2023-08-06T07:02:19;17.10;99.90
12872;DHT22;6504;53.766;9.626;2023-08-06T07:04:50;17.10;99.90
12872;DHT22;6504;53.766;9.626;2023-08-06T07:07:18;17.10;99.90
12872;DHT22;6504;53.766;9.626;2023-08-06T07:09:46;17.10;99.90
12872;DHT22;6504;53.766;9.626;2023-08-06T07:12:14;17.10;99.90
12872;DHT22;6504;53.766;9.626;2023-08-06T07:14:42;17.10;99.90
12872;DHT22;6504;53.766;9.626;2023-08-06T07:17:10;17.10;99.90
12872;DHT22;6504;53.766;9.626;2023-08-06T07:19:38;17.10;99.90
12872;DHT22;6504;53.766;9.626;2023-08-06T07:22:07;17.10;99.90
12872;DHT22;6504;53.766;9.626;2023-08-06T07:24:35;17.10;99.90
12872;DHT22;6504;53.766;9.626;2023-08-06T07:27:04;17.10;99.90
12872;DHT22;6504;53.766;9.626;2023-08-06T07:29:32;17.10;99.90
12872;DHT22;6504;53.766;9.626;2023-08-06T07:32:01;17.10;99.90
12872;DHT22;6504;53.766;9.626;2023-08-06T07:34:29;17.00;99.90
12872;DHT22;6504;53.766;9.626;2023-08-06T07:36:57;17.00;99.90
12872;DHT22;6504;53.766;9.626;2023-08-06T07:39:26;17.00;99.90
12872;DHT22;6504;53.766;9.626;2023-08-06T07:41:55;17.00;99.90
12872;DHT22;6504;53.766;9.626;2023-08-06T07:44:23;17.00;99.90
12872;DHT22;6504;53.766;9.626;2023-08-06T07:46:51;17.00;99.90
12872;DHT22;6504;53.766;9.626;2023-08-06T07:49:19;17.00;99.90
12872;DHT22;6504;53.766;9.626;2023-08-06T07:51:47;17.00;99.90
12872;DHT22;6504;53.766;9.626;2023-08-06T07:54:15;17.10;99.90
12872;DHT22;6504;53.766;9.626;2023-08-06T07:56:44;17.10;99.90
12872;DHT22;6504;53.766;9.626;2023-08-06T07:59:12;17.00;99.90
12872;DHT22;6504;53.766;9.626;2023-08-06T08:01:40;17.10;99.90
12872;DHT22;6504;53.766;9.626;2023-08-06T08:04:08;17.10;99.90
12872;DHT22;6504;53.766;9.626;2023-08-06T08:06:36;17.10;99.90
12872;DHT22;6504;53.766;9.626;2023-08-06T08:09:04;17.10;99.90
12872;DHT22;6504;53.766;9.626;2023-08-06T08:11:32;17.10;99.90
12872;DHT22;6504;53.766;9.626;2023-08-06T08:14:02;17.10;99.90
12872;DHT22;6504;53.766;9.626;2023-08-06T08:16:30;17.10;99.90
12872;DHT22;6504;53.766;9.626;2023-08-06T08:18:58;17.10;99.90
12872;DHT22;6504;53.766;9.626;2023-08-06T08:21:26;17.20;99.90
12872;DHT22;6504;53.766;9.626;2023-08-06T08:23:54;17.20;99.90
12872;DHT22;6504;53.766;9.626;2023-08-06T08:26:22;17.20;99.90
12872;DHT22;6504;53.766;9.626;2023-08-06T08:28:51;17.20;99.90
12872;DHT22;6504;53.766;9.626;2023-08-06T08:31:20;17.20;99.90
12872;DHT22;6504;53.766;9.626;2023-08-06T08:33:48;17.30;99.90
12872;DHT22;6504;53.766;9.626;2023-08-06T08:36:20;17.30;99.90
12872;DHT22;6504;53.766;9.626;2023-08-06T08:38:49;17.30;99.90
12872;DHT22;6504;53.766;9.626;2023-08-06T08:41:20;17.40;99.90
12872;DHT22;6504;53.766;9.626;2023-08-06T08:43:50;17.40;99.90
12872;DHT22;6504;53.766;9.626;2023-08-06T08:46:20;17.40;99.90
12872;DHT22;6504;53.766;9.626;2023-08-06T08:48:48;17.50;99.90
12872;DHT22;6504;53.766;9.626;2023-08-06T08:51:17;17.50;99.90
12872;DHT22;6504;53.766;9.626;2023-08-06T08:53:47;17.50;99.90
12872;DHT22;6504;53.766;9.626;2023-08-06T08:56:17;17.60;99.90
12872;DHT22;6504;53.766;9.626;2023-08-06T08:58:45;17.60;99.90
12872;DHT22;6504;53.766;9.626;2023-08-06T09:01:14;17.60;99.90
12872;DHT22;6504;53.766;9.626;2023-08-06T09:03:44;17.70;99.90
12872;DHT22;6504;53.766;9.626;2023-08-06T09:06:13;17.70;99.90
12872;DHT22;6504;53.766;9.626;2023-08-06T09:08:49;17.80;99.90
12872;DHT22;6504;53.766;9.626;2023-08-06T09:11:19;17.80;99.90
12872;DHT22;6504;53.766;9.626;2023-08-06T09:13:48;17.90;99.90
12872;DHT22;6504;53.766;9.626;2023-08-06T09:16:16;17.90;99.90
12872;DHT22;6504;53.766;9.626;2023-08-06T09:18:46;18.00;99.90
12872;DHT22;6504;53.766;9.626;2023-08-06T09:21:15;18.00;99.90
12872;DHT22;6504;53.766;9.626;2023-08-06T09:23:43;18.00;99.90
12872;DHT22;6504;53.766;9.626;2023-08-06T09:26:12;18.10;99.90
12872;DHT22;6504;53.766;9.626;2023-08-06T09:28:42;18.10;99.90
12872;DHT22;6504;53.766;9.626;2023-08-06T09:31:11;18.10;99.90
12872;DHT22;6504;53.766;9.626;2023-08-06T09:33:39;18.10;99.90
12872;DHT22;6504;53.766;9.626;2023-08-06T09:36:09;18.10;99.90
12872;DHT22;6504;53.766;9.626;2023-08-06T09:38:38;18.20;99.90
12872;DHT22;6504;53.766;9.626;2023-08-06T09:41:08;18.20;99.90
12872;DHT22;6504;53.766;9.626;2023-08-06T09:43:42;18.20;99.90
12872;DHT22;6504;53.766;9.626;2023-08-06T09:46:12;18.20;99.90
12872;DHT22;6504;53.766;9.626;2023-08-06T09:48:40;18.20;99.90
12872;DHT22;6504;53.766;9.626;2023-08-06T09:51:11;18.30;99.90
12872;DHT22;6504;53.766;9.626;2023-08-06T09:53:42;18.30;99.90
12872;DHT22;6504;53.766;9.626;2023-08-06T09:56:10;18.20;99.90
12872;DHT22;6504;53.766;9.626;2023-08-06T09:58:41;18.20;99.90
12872;DHT22;6504;53.766;9.626;2023-08-06T10:01:10;18.20;99.90
12872;DHT22;6504;53.766;9.626;2023-08-06T10:03:39;18.20;99.90
12872;DHT22;6504;53.766;9.626;2023-08-06T10:06:09;18.20;99.90
12872;DHT22;6504;53.766;9.626;2023-08-06T10:08:38;18.10;99.90
12872;DHT22;6504;53.766;9.626;2023-08-06T10:11:09;18.20;99.90
12872;DHT22;6504;53.766;9.626;2023-08-06T10:13:38;18.10;99.90
12872;DHT22;6504;53.766;9.626;2023-08-06T10:16:06;18.20;99.90
12872;DHT22;6504;53.766;9.626;2023-08-06T10:18:37;18.20;99.90
12872;DHT22;6504;53.766;9.626;2023-08-06T10:21:07;18.20;99.90
12872;DHT22;6504;53.766;9.626;2023-08-06T10:23:40;18.20;99.90
12872;DHT22;6504;53.766;9.626;2023-08-06T10:26:08;18.20;99.90
12872;DHT22;6504;53.766;9.626;2023-08-06T10:28:37;18.20;99.90
12872;DHT22;6504;53.766;9.626;2023-08-06T10:31:06;18.30;99.90
12872;DHT22;6504;53.766;9.626;2023-08-06T10:33:41;18.40;99.90
12872;DHT22;6504;53.766;9.626;2023-08-06T10:36:11;18.40;99.90
12872;DHT22;6504;53.766;9.626;2023-08-06T10:38:47;18.30;99.90
12872;DHT22;6504;53.766;9.626;2023-08-06T10:41:22;18.40;99.90
12872;DHT22;6504;53.766;9.626;2023-08-06T10:43:50;18.40;99.90
12872;DHT22;6504;53.766;9.626;2023-08-06T10:46:23;18.40;99.90
12872;DHT22;6504;53.766;9.626;2023-08-06T10:48:51;18.50;99.90
12872;DHT22;6504;53.766;9.626;2023-08-06T10:51:19;18.50;99.90
12872;DHT22;6504;53.766;9.626;2023-08-06T10:53:50;18.50;99.90
12872;DHT22;6504;53.766;9.626;2023-08-06T10:56:19;18.60;99.90
12872;DHT22;6504;53.766;9.626;2023-08-06T10:58:50;18.60;99.90
12872;DHT22;6504;53.766;9.626;2023-08-06T11:01:19;18.70;99.90
12872;DHT22;6504;53.766;9.626;2023-08-06T11:03:50;18.70;99.90
12872;DHT22;6504;53.766;9.626;2023-08-06T11:06:21;18.70;99.90
12872;DHT22;6504;53.766;9.626;2023-08-06T11:08:52;18.80;99.90
12872;DHT22;6504;53.766;9.626;2023-08-06T11:11:21;18.80;99.90
12872;DHT22;6504;53.766;9.626;2023-08-06T11:13:51;18.90;99.90
12872;DHT22;6504;53.766;9.626;2023-08-06T11:16:21;19.00;99.90
12872;DHT22;6504;53.766;9.626;2023-08-06T11:18:51;19.00;99.90
12872;DHT22;6504;53.766;9.626;2023-08-06T11:21:21;19.00;99.90
12872;DHT22;6504;53.766;9.626;2023-08-06T11:23:53;19.00;99.90
12872;DHT22;6504;53.766;9.626;2023-08-06T11:26:21;19.10;99.90
12872;DHT22;6504;53.766;9.626;2023-08-06T11:28:51;19.10;99.90
12872;DHT22;6504;53.766;9.626;2023-08-06T11:31:19;19.10;99.90
12872;DHT22;6504;53.766;9.626;2023-08-06T11:33:48;19.20;99.90
12872;DHT22;6504;53.766;9.626;2023-08-06T11:36:16;19.20;99.90
12872;DHT22;6504;53.766;9.626;2023-08-06T11:38:44;19.20;99.90
12872;DHT22;6504;53.766;9.626;2023-08-06T11:41:13;19.20;99.90
12872;DHT22;6504;53.766;9.626;2023-08-06T11:43:45;19.30;99.90
12872;DHT22;6504;53.766;9.626;2023-08-06T11:46:13;19.30;99.90
12872;DHT22;6504;53.766;9.626;2023-08-06T11:48:51;19.30;99.90
12872;DHT22;6504;53.766;9.626;2023-08-06T11:51:22;19.40;99.90
12872;DHT22;6504;53.766;9.626;2023-08-06T11:53:51;19.40;99.90
12872;DHT22;6504;53.766;9.626;2023-08-06T11:56:24;19.40;99.90
12872;DHT22;6504;53.766;9.626;2023-08-06T11:58:54;19.50;99.90
12872;DHT22;6504;53.766;9.626;2023-08-06T12:01:22;19.50;99.90
12872;DHT22;6504;53.766;9.626;2023-08-06T12:03:51;19.50;99.90
12872;DHT22;6504;53.766;9.626;2023-08-06T12:06:19;19.50;99.90
12872;DHT22;6504;53.766;9.626;2023-08-06T12:08:47;19.50;99.90
12872;DHT22;6504;53.766;9.626;2023-08-06T12:11:17;19.50;99.90
12872;DHT22;6504;53.766;9.626;2023-08-06T12:13:50;19.60;99.90
12872;DHT22;6504;53.766;9.626;2023-08-06T12:16:18;19.60;99.90
12872;DHT22;6504;53.766;9.626;2023-08-06T12:18:48;19.50;99.90
12872;DHT22;6504;53.766;9.626;2023-08-06T12:21:16;19.60;99.90
12872;DHT22;6504;53.766;9.626;2023-08-06T12:23:44;19.50;99.90
12872;DHT22;6504;53.766;9.626;2023-08-06T12:26:12;19.60;99.90
12872;DHT22;6504;53.766;9.626;2023-08-06T12:28:40;19.60;99.90
12872;DHT22;6504;53.766;9.626;2023-08-06T12:31:10;19.60;99.90
12872;DHT22;6504;53.766;9.626;2023-08-06T12:33:38;19.60;99.90
12872;DHT22;6504;53.766;9.626;2023-08-06T12:36:06;19.60;99.90
12872;DHT22;6504;53.766;9.626;2023-08-06T12:38:34;19.50;99.90
12872;DHT22;6504;53.766;9.626;2023-08-06T12:41:02;19.60;99.90
12872;DHT22;6504;53.766;9.626;2023-08-06T12:43:30;19.60;99.90
12872;DHT22;6504;53.766;9.626;2023-08-06T12:45:58;19.60;99.90
12872;DHT22;6504;53.766;9.626;2023-08-06T12:48:28;19.60;99.90
12872;DHT22;6504;53.766;9.626;2023-08-06T12:50:56;19.60;99.90
12872;DHT22;6504;53.766;9.626;2023-08-06T12:53:24;19.50;99.90
12872;DHT22;6504;53.766;9.626;2023-08-06T12:55:52;19.50;99.90
12872;DHT22;6504;53.766;9.626;2023-08-06T12:58:20;19.40;99.90
12872;DHT22;6504;53.766;9.626;2023-08-06T13:00:48;19.30;99.90
12872;DHT22;6504;53.766;9.626;2023-08-06T13:03:16;19.20;99.90
12872;DHT22;6504;53.766;9.626;2023-08-06T13:05:45;19.20;99.90
12872;DHT22;6504;53.766;9.626;2023-08-06T13:08:14;19.10;99.90
12872;DHT22;6504;53.766;9.626;2023-08-06T13:10:42;19.10;99.90
12872;DHT22;6504;53.766;9.626;2023-08-06T13:13:10;19.10;99.90
12872;DHT22;6504;53.766;9.626;2023-08-06T13:15:38;19.00;99.90
12872;DHT22;6504;53.766;9.626;2023-08-06T13:18:06;19.00;99.90
12872;DHT22;6504;53.766;9.626;2023-08-06T13:20:34;19.00;99.90
12872;DHT22;6504;53.766;9.626;2023-08-06T13:23:03;18.90;99.90
12872;DHT22;6504;53.766;9.626;2023-08-06T13:25:33;18.90;99.90
12872;DHT22;6504;53.766;9.626;2023-08-06T13:28:03;18.90;99.90
12872;DHT22;6504;53.766;9.626;2023-08-06T13:30:32;18.80;99.90
12872;DHT22;6504;53.766;9.626;2023-08-06T13:33:01;18.80;99.90
12872;DHT22;6504;53.766;9.626;2023-08-06T13:35:31;18.80;99.90
12872;DHT22;6504;53.766;9.626;2023-08-06T13:37:59;18.80;99.90
12872;DHT22;6504;53.766;9.626;2023-08-06T13:40:32;18.80;99.90
12872;DHT22;6504;53.766;9.626;2023-08-06T13:43:01;18.80;99.90
12872;DHT22;6504;53.766;9.626;2023-08-06T13:45:29;18.80;99.90
12872;DHT22;6504;53.766;9.626;2023-08-06T13:47:58;18.80;99.90
12872;DHT22;6504;53.766;9.626;2023-08-06T13:50:26;18.80;99.90
12872;DHT22;6504;53.766;9.626;2023-08-06T13:52:54;18.80;99.90
12872;DHT22;6504;53.766;9.626;2023-08-06T13:55:23;18.80;99.90
12872;DHT22;6504;53.766;9.626;2023-08-06T13:57:52;18.80;99.90
12872;DHT22;6504;53.766;9.626;2023-08-06T14:00:20;18.80;99.90
12872;DHT22;6504;53.766;9.626;2023-08-06T14:02:48;18.80;99.90
12872;DHT22;6504;53.766;9.626;2023-08-06T14:05:17;18.80;99.90
12872;DHT22;6504;53.766;9.626;2023-08-06T14:07:45;18.80;99.90
12872;DHT22;6504;53.766;9.626;2023-08-06T14:10:13;18.80;99.90
12872;DHT22;6504;53.766;9.626;2023-08-06T14:12:41;18.80;99.90
12872;DHT22;6504;53.766;9.626;2023-08-06T14:15:17;18.70;99.90
12872;DHT22;6504;53.766;9.626;2023-08-06T14:17:45;18.70;99.90
12872;DHT22;6504;53.766;9.626;2023-08-06T14:20:13;18.70;99.90
12872;DHT22;6504;53.766;9.626;2023-08-06T14:22:41;18.70;99.90
12872;DHT22;6504;53.766;9.626;2023-08-06T14:25:09;18.70;99.90
12872;DHT22;6504;53.766;9.626;2023-08-06T14:27:37;18.80;99.90
12872;DHT22;6504;53.766;9.626;2023-08-06T14:30:06;18.80;99.90
12872;DHT22;6504;53.766;9.626;2023-08-06T14:32:36;18.80;99.90
12872;DHT22;6504;53.766;9.626;2023-08-06T14:35:05;18.80;99.90
12872;DHT22;6504;53.766;9.626;2023-08-06T14:37:33;18.90;99.90
12872;DHT22;6504;53.766;9.626;2023-08-06T14:40:01;18.90;99.90
12872;DHT22;6504;53.766;9.626;2023-08-06T14:42:29;18.80;99.90
12872;DHT22;6504;53.766;9.626;2023-08-06T14:44:57;18.80;99.90
12872;DHT22;6504;53.766;9.626;2023-08-06T14:47:25;18.90;99.90
12872;DHT22;6504;53.766;9.626;2023-08-06T14:49:54;18.90;99.90
12872;DHT22;6504;53.766;9.626;2023-08-06T14:52:22;18.90;99.90
12872;DHT22;6504;53.766;9.626;2023-08-06T14:54:51;19.00;99.90
12872;DHT22;6504;53.766;9.626;2023-08-06T14:57:22;19.00;99.90
12872;DHT22;6504;53.766;9.626;2023-08-06T14:59:55;19.00;99.90
12872;DHT22;6504;53.766;9.626;2023-08-06T15:02:23;19.00;99.90
12872;DHT22;6504;53.766;9.626;2023-08-06T15:04:51;19.10;99.90
12872;DHT22;6504;53.766;9.626;2023-08-06T15:07:20;19.10;99.90
12872;DHT22;6504;53.766;9.626;2023-08-06T15:09:48;19.10;99.90
12872;DHT22;6504;53.766;9.626;2023-08-06T15:12:36;19.20;99.90
12872;DHT22;6504;53.766;9.626;2023-08-06T15:15:07;19.20;99.90
12872;DHT22;6504;53.766;9.626;2023-08-06T15:17:36;19.20;99.90
12872;DHT22;6504;53.766;9.626;2023-08-06T15:20:05;19.20;99.90
12872;DHT22;6504;53.766;9.626;2023-08-06T15:22:34;19.20;99.90
12872;DHT22;6504;53.766;9.626;2023-08-06T15:25:03;19.20;99.90
12872;DHT22;6504;53.766;9.626;2023-08-06T15:27:31;19.30;99.90
12872;DHT22;6504;53.766;9.626;2023-08-06T15:30:00;19.30;99.90
12872;DHT22;6504;53.766;9.626;2023-08-06T15:32:28;19.30;99.90
12872;DHT22;6504;53.766;9.626;2023-08-06T15:34:56;19.30;99.90
12872;DHT22;6504;53.766;9.626;2023-08-06T15:37:25;19.30;99.90
12872;DHT22;6504;53.766;9.626;2023-08-06T15:39:54;19.40;99.90
12872;DHT22;6504;53.766;9.626;2023-08-06T15:42:22;19.40;99.90
12872;DHT22;6504;53.766;9.626;2023-08-06T15:44:50;19.40;99.90
12872;DHT22;6504;53.766;9.626;2023-08-06T15:47:18;19.50;99.90
12872;DHT22;6504;53.766;9.626;2023-08-06T15:49:47;19.50;99.90
12872;DHT22;6504;53.766;9.626;2023-08-06T15:52:15;19.50;99.90
12872;DHT22;6504;53.766;9.626;2023-08-06T15:54:44;19.60;99.90